Latest Coastal Weather Observations for Evans Head

IDN60701

Issued at 6:41 pm EDT Friday 12 February 2016 (issued every 10 minutes, with the page automatically refreshed every 10 minutes)

About coastal observations | Map of coastal stations | Coastal observations for NSW | Marine services | Other Formats
Station Details ID: 058212 Name: EVANS HEAD RAAF BOMBING RANGE AWS Lat: -29.18 Lon: 153.40 Height: 62.5 m
Data from the previous 72 hours. | See also: Recent months at Evans Head
Date/Time
EDT
Temp

°C
Wind Pressure Rain
since 9am
mm
Weather Cloud Vis
km
Sea
Height
m
Swell
Dir
 
Speed
knots
Gust
knots
hPa Trend Height
m
Period
s
Dir
12/06:30pm 24.3 SSE 13 18 1013.9 - 0.0 - - - - - - -
12/06:00pm 25.3 SSE 13 18 1013.8 - 0.0 - - - - - - -
12/05:30pm 25.8 SSE 14 19 1013.6 - 0.0 - - - - - - -
12/05:00pm 26.5 SSE 13 20 1013.6 - 0.0 - - - - - - -
12/04:30pm 26.4 SSE 14 20 1013.8 - 0.0 - - - - - - -
12/04:00pm 27.4 SSE 13 17 1013.7 - 0.0 - - - - - - -
12/03:30pm 27.9 SSE 13 18 1013.8 - 0.0 - - - - - - -
12/03:00pm 27.9 SSE 13 18 1013.9 - 0.0 - - - - - - -
12/02:30pm 28.2 SSE 14 20 1014.0 - 0.0 - - - - - - -
12/02:00pm 27.0 SSE 15 21 1014.1 - 0.0 - - - - - - -
12/01:30pm 27.4 SE 14 19 1014.2 - 0.0 - - - - - - -
12/01:00pm 28.5 SSE 14 19 1014.4 - 0.0 - - - - - - -
12/12:30pm 28.0 SSE 14 18 1014.5 - 0.0 - - - - - - -
12/12:00pm 28.0 SSE 13 19 1014.7 - 0.0 - - - - - - -
12/11:30am 28.3 SSE 13 17 1014.8 - 0.0 - - - - - - -
12/11:00am 28.0 SSE 12 18 1015.0 - 0.0 - - - - - - -
12/10:30am 25.2 SSE 12 18 1014.9 - 0.0 - - - - - - -
12/10:00am 27.2 SE 11 15 1014.9 - 0.0 - - - - - - -
12/09:30am 25.8 SSE 11 15 1014.8 - 0.0 - - - - - - -
12/09:00am 26.6 SE 12 16 1014.8 - 0.0 - - - - - - -
12/08:30am 26.3 SSE 9 13 1014.7 - 0.0 - - - - - - -
12/08:00am 24.5 SSE 9 14 1014.5 - 0.0 - - - - - - -
12/07:30am 21.6 SSW 6 10 1014.3 - 0.0 - - - - - - -
12/07:00am 20.1 SSW 5 6 1014.2 - 0.0 - - - - - - -
12/06:30am 19.5 SW 7 8 1014.1 - 0.0 - - - - - - -
12/06:00am 19.8 WSW 7 9 1014.0 - 0.0 - - - - - - -
12/05:30am 19.7 SW 5 7 1013.6 - 0.0 - - - - - - -
12/05:00am 19.9 SW 6 8 1013.2 - 0.0 - - - - - - -
12/04:30am 19.8 SW 7 10 1013.2 - 0.0 - - - - - - -
12/04:00am 19.7 SW 6 8 1013.4 - 0.0 - - - - - - -
12/03:30am 19.8 WSW 6 8 1013.6 - 0.0 - - - - - - -
12/03:00am 20.2 SW 7 10 1013.6 - 0.0 - - - - - - -
12/02:30am 20.5 SW 6 8 1013.8 - 0.0 - - - - - - -
12/02:00am 21.6 SSE 7 9 1013.9 - 0.0 - - - - - - -
12/01:30am 22.0 SE 7 10 1014.1 - 0.0 - - - - - - -
12/01:00am 22.2 SE 7 10 1014.4 - 0.0 - - - - - - -
12/12:30am 22.4 SE 8 11 1014.5 - 0.0 - - - - - - -
12/12:00am 22.2 SE 7 9 1014.6 - 0.0 - - - - - - -
 
Date/Time
EDT
Temp

°C
Wind Pressure Rain
since 9am
mm
Weather Cloud Vis
km
Sea
Height
m
Swell
Dir
 
Speed
knots
Gust
knots
hPa Trend Height
m
Period
s
Dir
11/11:30pm 22.8 SE 9 12 1014.8 - 0.0 - - - - - - -
11/11:00pm 22.8 SE 8 12 1014.7 - 0.0 - - - - - - -
11/10:30pm 23.2 SE 10 14 1014.9 - 0.0 - - - - - - -
11/10:00pm 23.1 ESE 9 12 1014.7 - 0.0 - - - - - - -
11/09:30pm 23.1 SE 9 14 1014.6 - 0.0 - - - - - - -
11/09:00pm 23.3 SE 9 13 1014.3 - 0.0 - - - - - - -
11/08:30pm 23.0 ESE 9 12 1014.0 - 0.0 - - - - - - -
11/08:00pm 23.2 SE 10 14 1013.8 - 0.0 - - - - - - -
11/07:30pm 23.3 SE 10 14 1013.6 - 0.0 - - - - - - -
11/07:00pm 23.6 SE 10 16 1013.2 - 0.0 - - - - - - -
11/06:30pm 24.4 SE 9 15 1013.0 - 0.0 - - - - - - -
11/06:00pm 25.0 SE 10 14 1012.9 - 0.0 - - - - - - -
11/05:30pm 25.8 SE 11 17 1012.6 - 0.0 - - - - - - -
11/05:00pm 26.3 SE 11 15 1012.6 - 0.0 - - - - - - -
11/04:30pm 26.6 SE 12 16 1012.6 - 0.0 - - - - - - -
11/04:00pm 27.0 SE 12 16 1012.6 - 0.0 - - - - - - -
11/03:30pm 27.1 SE 11 15 1012.8 - 0.0 - - - - - - -
11/03:00pm 27.4 SE 11 16 1013.0 - 0.0 - - - - - - -
11/02:30pm 28.0 SE 11 16 1013.2 - 0.0 - - - - - - -
11/02:00pm 28.1 SE 12 16 1013.5 - 0.0 - - - - - - -
11/01:30pm 27.5 ESE 12 15 1013.8 - 0.0 - - - - - - -
11/01:00pm 28.1 SE 11 15 1014.1 - 0.0 - - - - - - -
11/12:30pm 28.1 ESE 10 14 1014.2 - 0.0 - - - - - - -
11/12:00pm 28.1 SE 10 13 1014.4 - 0.0 - - - - - - -
11/11:30am 27.6 SE 9 13 1014.5 - 0.0 - - - - - - -
11/11:00am 27.1 SE 8 11 1014.4 - 0.0 - - - - - - -
11/10:30am 27.1 SSE 7 10 1014.3 - 0.0 - - - - - - -
11/10:00am 25.2 SSE 6 8 1014.3 - 0.0 - - - - - - -
11/09:30am 24.4 SSE 5 8 1014.2 - 0.0 - - - - - - -
11/09:00am 24.5 SSW 5 8 1014.3 - 0.0 - - - - - - -
11/08:30am 22.5 SW 5 8 1014.2 - 0.0 - - - - - - -
11/08:00am 21.3 SW 4 6 1013.9 - 0.0 - - - - - - -
11/07:30am 20.4 SW 6 8 1013.6 - 0.0 - - - - - - -
11/07:00am 19.9 WSW 6 7 1013.2 - 0.0 - - - - - - -
11/06:30am 19.9 WSW 6 8 1012.8 - 0.0 - - - - - - -
11/06:00am 19.9 SW 6 7 1012.7 - 0.0 - - - - - - -
11/05:30am 20.0 WSW 6 7 1012.5 - 0.0 - - - - - - -
11/05:00am 20.2 WSW 6 7 1012.3 - 0.0 - - - - - - -
11/04:30am 20.5 SW 5 7 1012.3 - 0.0 - - - - - - -
11/04:00am 20.8 WSW 5 7 1012.3 - 0.0 - - - - - - -
11/03:30am 20.8 WSW 6 7 1012.6 - 0.0 - - - - - - -
11/03:00am 21.2 SW 6 8 1012.9 - 0.0 - - - - - - -
11/02:30am 21.4 SW 5 6 1013.0 - 0.0 - - - - - - -
11/02:00am 21.7 WSW 5 7 1013.1 - 0.0 - - - - - - -
11/01:30am 22.8 ESE 4 6 1013.6 - 0.0 - - - - - - -
11/01:00am 22.9 ESE 5 8 1013.8 - 0.0 - - - - - - -
11/12:30am 22.5 ESE 6 7 1014.1 - 0.0 - - - - - - -
11/12:00am 22.2 SE 7 9 1014.2 - 0.0 - - - - - - -
 
Date/Time
EDT
Temp

°C
Wind Pressure Rain
since 9am
mm
Weather Cloud Vis
km
Sea
Height
m
Swell
Dir
 
Speed
knots
Gust
knots
hPa Trend Height
m
Period
s
Dir
10/11:30pm 22.6 ESE 7 9 1014.3 - 0.0 - - - - - - -
10/11:00pm 23.1 ESE 8 12 1014.5 - 0.0 - - - - - - -
10/10:30pm 23.3 ESE 9 12 1014.6 - 0.0 - - - - - - -
10/10:00pm 23.1 ESE 9 13 1014.5 - 0.0 - - - - - - -
10/09:30pm 23.4 ESE 10 14 1014.4 - 0.0 - - - - - - -
10/09:00pm 23.7 ESE 12 15 1014.2 - 0.0 - - - - - - -
10/08:30pm 23.2 ESE 15 20 1014.1 - 0.0 - - - - - - -
10/08:00pm 23.2 ESE 15 23 1013.8 - 0.0 - - - - - - -
10/07:30pm 23.1 SE 12 18 1013.6 - 0.0 - - - - - - -
10/07:00pm 23.4 SE 10 13 1013.6 - 0.0 - - - - - - -
10/06:30pm 23.1 SSE 12 18 1013.2 - 0.0 - - - - - - -
10/06:00pm 23.9 SE 13 18 1013.2 - 0.0 - - - - - - -
10/05:30pm 24.0 SE 13 18 1013.2 - 0.0 - - - - - - -
10/05:00pm 24.5 SSE 13 18 1013.1 - 0.0 - - - - - - -
10/04:30pm 26.0 SE 12 17 1012.9 - 0.0 - - - - - - -
10/04:00pm 26.7 SE 13 18 1013.1 - 0.0 - - - - - - -
10/03:30pm 27.3 S 11 16 1013.2 - 0.0 - - - - - - -
10/03:00pm 27.0 S 13 19 1013.5 - 0.0 - - - - - - -
10/02:30pm 25.7 S 15 21 1013.8 - 0.0 - - - - - - -
10/02:00pm 27.8 S 14 20 1013.9 - 0.0 - - - - - - -
10/01:30pm 27.2 SSE 14 19 1013.9 - 0.0 - - - - - - -
10/01:00pm 26.5 SSE 11 17 1014.2 - 0.0 - - - - - - -
10/12:30pm 25.3 SSE 11 17 1014.4 - 0.0 - - - - - - -
10/12:00pm 27.1 SE 13 17 1014.6 - 0.0 - - - - - - -
10/11:30am 27.6 ENE 10 13 1014.8 - 0.0 - - - - - - -
10/11:00am 26.7 SE 11 15 1014.9 - 0.0 - - - - - - -
10/10:30am 26.4 SE 11 16 1014.9 - 0.0 - - - - - - -
10/10:00am 26.3 SE 11 15 1014.9 - 0.0 - - - - - - -
10/09:30am 25.1 SE 9 13 1014.9 - 0.0 - - - - - - -
10/09:00am 22.3 S 7 11 1014.8 - 0.2 Recent precip. - - - - - -
10/08:30am 20.8 S 7 10 1014.7 - 0.2 - - - - - - -
10/08:00am 20.9 S 7 11 1014.4 - 0.0 - - - - - - -
10/07:30am 23.0 SE 9 14 1014.2 - 0.0 - - - - - - -
10/07:00am 22.3 SE 8 12 1014.0 - 0.0 - - - - - - -
10/06:30am 20.4 SSE 6 8 1013.9 - 0.0 - - - - - - -
10/06:00am 21.4 SSE 6 9 1013.9 - 0.0 - - - - - - -
10/05:30am 21.7 SE 11 16 1013.6 - 0.0 - - - - - - -
10/05:00am 21.4 SE 12 17 1013.5 - 0.0 - - - - - - -
10/04:30am 22.3 SE 14 20 1013.5 - 0.0 - - - - - - -
10/04:00am 22.6 SE 11 16 1013.5 - 0.0 - - - - - - -
10/03:30am 22.2 SE 12 18 1013.5 - 0.0 - - - - - - -
10/03:00am 22.1 SE 14 21 1013.8 - 0.0 - - - - - - -
10/02:30am 22.1 SE 15 21 1014.1 - 0.0 - - - - - - -
10/02:00am 22.0 SE 13 20 1014.4 - 0.0 - - - - - - -
10/01:30am 22.3 SE 15 20 1014.8 - 0.0 - - - - - - -
10/01:00am 22.3 SE 15 19 1015.1 - 0.0 - - - - - - -
10/12:30am 22.7 SE 15 21 1015.7 - 0.0 - - - - - - -
10/12:00am 22.8 SE 15 24 1016.1 - 0.0 - - - - - - -
 
Date/Time
EDT
Temp

°C
Wind Pressure Rain
since 9am
mm
Weather Cloud Vis
km
Sea
Height
m
Swell
Dir
 
Speed
knots
Gust
knots
hPa Trend Height
m
Period
s
Dir
09/11:30pm 22.7 SE 15 25 1016.5 - 0.0 - - - - - - -
09/11:21pm 22.9 SE 15 25 1016.5 - 0.0 - - - - - - -
09/11:00pm 22.8 SE 15 21 1016.6 - 0.0 - - - - - - -
09/10:30pm 23.1 SE 17 25 1016.9 - 0.0 - - - - - - -
09/10:00pm 22.9 SE 16 24 1016.8 - 0.0 - - - - - - -
09/09:30pm 23.0 SE 16 21 1016.8 - 0.0 - - - - - - -
09/09:00pm 23.2 SE 16 21 1016.7 - 0.0 - - - - - - -
09/08:37pm 23.0 SE 15 25 1016.5 - 0.0 - - - - - - -
09/08:30pm 23.0 ESE 16 23 1016.4 - 0.0 - - - - - - -
09/08:00pm 23.1 SE 17 25 1016.3 - 0.0 - - - - - - -
09/07:30pm 23.3 SE 17 23 1016.2 - 0.0 - - - - - - -
09/07:00pm 23.4 SE 16 22 1016.1 - 0.0 - - - - - - -

Other Formats:

Comma delimited format used in spreadsheet applications
http://www.bom.gov.au/fwo/IDN60701/IDN60701.94598.axf

JavaScript Object Notation format (JSON) in row-major order
http://www.bom.gov.au/fwo/IDN60701/IDN60701.94598.json